AirNav   Pilot Hours Calculator
 
 638 users online  

34II Burk Personal Use Airport
Anderson, Indiana, USA

GOING TO ANDERSON?


FAA INFORMATION EFFECTIVE 16 JUNE 2022

Location

FAA Identifier: 34II
Lat/Long: 40-03-02.1570N 085-36-09.9120W
40-03.035950N 085-36.165200W
40.0505992,-85.6027533
(estimated)
Elevation: 930 ft. / 283 m (estimated)
Variation: 02W (1985)
From city: 3 miles SE of ANDERSON, IN
Time zone: UTC -4 (UTC -5 during Standard Time)
Zip code: 46017

Airport Operations

Airport use: Private use, PERSONAL USE.
Activation date: 05/1987
Control tower: no
ARTCC: INDIANAPOLIS CENTER
FSS: TERRE HAUTE FLIGHT SERVICE STATION
Attendance: UNATNDD
Segmented circle: no

Airport Communications

WX AWOS-3 at AID (4 nm N): 128.55 (765-442-1245)
WX ASOS at MIE (15 nm NE): 114.4 (765-288-9617)
WX AWOS-3 at MQJ (18 nm SW): 124.175 (317-335-3037)

Airport Services

Runway Information

Runway 9/27

Dimensions: 1250 x 120 ft. / 381 x 37 m
Surface: turf
RUNWAY 9  RUNWAY 27
Traffic pattern: leftleft
Obstructions: none20 ft. pline

Airport Ownership and Management from official FAA records

Ownership: Privately-owned
Owner: JOHN F. BURK
3757 S 380 EAST
ANDERSON, IN 46017
Phone 317-378-3673

Additional Remarks

FOR CD CTC INDIANAPOLIS APCH AT 317-227-5743.

Instrument Procedures

There are no published instrument procedures at 34II.

Some nearby airports with instrument procedures:

KAID - Anderson Municipal Airport-Darlington Field (4 nm N)
KMIE - Delaware County Regional Airport (15 nm NE)
KUWL - New Castle Henry County Airport / Marlatt Field (16 nm SE)
KMQJ - Indianapolis Regional Airport (18 nm SW)
KUMP - Indianapolis Metro Airport (21 nm W)
 
Loc | Ops | Rwys | IFR | FBO | Links
Com | Nav | Svcs | Stats | Notes
Area around 34II (Burk Personal Use Airport)
 
Road maps at: MapQuest Bing Google
 
Aerial photo
No photo
 
Sectional chart

 
Airport distance calculator
Flying to Burk Personal Use Airport? Find the distance to fly.

From to 34II

Sunrise and sunset
Times for 30-Jun-2022
 Local
(UTC-4)
 Zulu
(UTC)
Morning civil twilight05:4509:45
Sunrise06:1810:18
Sunset21:1401:14
Evening civil twilight21:4701:47

Current date and time
Zulu (UTC)  30-Jun-2022 10:46:40
Local (UTC-4)  30-Jun-2022 06:46:40
 
METAR
KAID 
4nm N 
301035Z AUTO 00000KT 10SM CLR 15/11 A3021 RMK AO2 T01450110
KMIE 
14nm NE 
300953Z AUTO 00000KT 10SM CLR 18/11 A3020 RMK AO2 SLP214 T01830111
KMQJ 
18nm SW 
301035Z AUTO 15004KT 10SM CLR 16/12 A3020 RMK AO1
TAF
KIND 
37nm SW 
300520Z 3006/0112 20007KT P6SM FEW250
KGUS 
43nm NW 
292100Z 2921/0103 23009KT 9999 FEW050 QNH3018INS BECMG 3014/3015 20010G15KT 9999 SKC QNH3004INS TX32/3020Z TN16/3008Z LAST NO AMDS AFT 3003 NEXT 3013
NOTAMs
Click for the latest NOTAMs
NOTAMs are issued by the DoD/FAA and will open in a separate window not controlled by AirNav.

 

 
 

Would you like to see your business listed on this page?

 If your business provides an interesting product or service to pilots, flight crews, aircraft, or users of the Burk Personal Use Airport, you should consider listing it here.  To start the listing process, click on the button below
 
Add a business
 

Other Pages about Burk Personal Use Airport

Update a link
 
Copyright © AirNav, LLC. All rights reserved. Privacy Policy  Contact